Time;durP1;ratioP1;P1;durP2;ratioP2;P2;SDS_P1;SDS_P2;PMS_P1;PMS_P2;Temp;Humidity;BMP_temperature;BMP_pressure;BME280_temperature;BME280_humidity;BME280_pressure;Samples;Min_cycle;Max_cycle;Signal;HPM_P1;HPM_P2
2021/08/02 00:00:01;;;;;;;5.37;2.13;;;14.60;85.10;;;;;;5073046;28;20325;-89
2021/08/02 00:02:37;;;;;;;5.90;2.10;;;14.50;84.90;;;;;;5055809;28;20224;-88
2021/08/02 00:05:07;;;;;;;7.53;2.13;;;14.50;84.60;;;;;;5055022;28;20743;-88
2021/08/02 00:07:36;;;;;;;7.80;2.10;;;14.50;85.00;;;;;;5054920;28;20658;-89
2021/08/02 00:10:09;;;;;;;5.70;1.80;;;14.50;85.20;;;;;;5072792;28;20167;-89
2021/08/02 00:12:41;;;;;;;10.67;2.07;;;14.50;85.30;;;;;;5072830;28;20215;-89
2021/08/02 00:15:09;;;;;;;9.77;2.10;;;14.50;84.90;;;;;;5054730;28;20697;-88
2021/08/02 00:17:37;;;;;;;7.70;2.50;;;14.50;85.10;;;;;;5054690;28;20167;-88
2021/08/02 00:20:04;;;;;;;11.60;2.87;;;14.50;85.30;;;;;;5054752;28;20596;-88
2021/08/02 00:22:29;;;;;;;5.13;2.10;;;14.50;85.30;;;;;;5076314;28;20160;-88
2021/08/02 00:24:55;;;;;;;7.77;2.30;;;14.30;85.80;;;;;;5058206;28;20219;-88
2021/08/02 00:27:21;;;;;;;8.27;2.27;;;14.30;85.50;;;;;;5076311;28;20159;-88
2021/08/02 00:29:49;;;;;;;7.93;2.03;;;14.30;85.70;;;;;;5059237;28;20567;-88
2021/08/02 00:32:16;;;;;;;7.77;2.13;;;14.20;85.70;;;;;;5076116;28;20662;-88
2021/08/02 00:34:41;;;;;;;5.97;1.97;;;14.20;85.40;;;;;;5076147;28;20174;-88
2021/08/02 00:37:16;;;;;;;6.80;2.27;;;14.20;85.60;;;;;;5058252;28;20168;-88
2021/08/02 00:40:03;;;;;;;5.37;1.77;;;14.20;86.10;;;;;;5058170;28;20173;-87
2021/08/02 00:42:58;;;;;;;6.43;2.30;;;14.10;86.30;;;;;;5057952;28;20171;-86
2021/08/02 00:45:31;;;;;;;6.00;2.63;;;14.20;86.00;;;;;;5076067;28;20179;-86
2021/08/02 00:48:08;;;;;;;8.57;3.20;;;14.20;86.00;;;;;;5057960;28;20654;-87
2021/08/02 00:50:47;;;;;;;4.77;2.00;;;14.00;86.40;;;;;;5057959;28;20171;-88
2021/08/02 00:53:19;;;;;;;5.53;2.13;;;14.10;86.20;;;;;;5075761;28;20255;-88
2021/08/02 00:55:51;;;;;;;4.77;1.93;;;14.10;86.40;;;;;;5057880;28;20654;-88
2021/08/02 00:58:19;;;;;;;8.27;2.83;;;14.10;86.50;;;;;;5075782;28;20163;-88
2021/08/02 01:00:47;;;;;;;5.13;2.40;;;14.20;86.60;;;;;;5075733;28;20305;-88
2021/08/02 01:03:14;;;;;;;8.67;3.90;;;14.20;87.00;;;;;;5058614;28;20532;-88
2021/08/02 01:05:41;;;;;;;13.87;2.93;;;14.20;87.00;;;;;;5075559;28;20195;-88
2021/08/02 01:08:38;;;;;;;9.83;2.80;;;14.20;87.00;;;;;;5057733;28;20663;-88
2021/08/02 01:11:09;;;;;;;10.43;2.93;;;14.20;86.90;;;;;;5059927;28;20264;-88
2021/08/02 01:13:37;;;;;;;8.33;3.60;;;14.20;86.70;;;;;;5075448;28;20349;-88
2021/08/02 01:16:05;;;;;;;10.67;2.20;;;14.20;86.60;;;;;;5057686;28;20195;-88
2021/08/02 01:18:33;;;;;;;13.57;2.77;;;14.20;86.60;;;;;;5057485;28;20171;-88
2021/08/02 01:21:04;;;;;;;7.87;2.60;;;14.10;86.60;;;;;;5057377;28;20203;-88
2021/08/02 01:23:31;;;;;;;6.20;2.47;;;14.10;86.90;;;;;;5057438;28;20251;-88
2021/08/02 01:25:56;;;;;;;9.27;2.60;;;14.00;87.00;;;;;;5075210;28;20222;-88
2021/08/02 01:28:25;;;;;;;7.40;2.33;;;14.00;87.10;;;;;;5057514;28;20175;-88
2021/08/02 01:30:59;;;;;;;9.10;2.17;;;14.00;87.10;;;;;;5057213;28;20182;-88
2021/08/02 01:33:30;;;;;;;7.60;2.17;;;14.00;87.20;;;;;;5056166;28;20728;-88
2021/08/02 01:36:04;;;;;;;4.37;2.00;;;13.90;87.20;;;;;;5075310;28;20195;-87
2021/08/02 01:38:31;;;;;;;13.07;2.97;;;13.90;87.40;;;;;;5075289;28;20163;-87
2021/08/02 01:40:57;;;;;;;11.57;2.93;;;14.00;87.30;;;;;;5074984;28;20171;-87
2021/08/02 01:43:23;;;;;;;11.67;2.90;;;13.90;87.80;;;;;;5075014;28;20270;-88
2021/08/02 01:45:55;;;;;;;8.60;2.63;;;13.90;88.10;;;;;;5056909;28;20678;-87
2021/08/02 01:48:42;;;;;;;17.33;3.90;;;13.90;87.90;;;;;;5074776;28;20178;-87
2021/08/02 01:51:21;;;;;;;11.40;3.50;;;13.90;87.80;;;;;;5057811;28;20171;-87
2021/08/02 01:54:00;;;;;;;14.67;3.33;;;13.90;87.60;;;;;;5056733;28;20195;-87
2021/08/02 01:56:35;;;;;;;9.83;2.57;;;14.00;87.70;;;;;;5056652;28;20195;-87
2021/08/02 01:59:09;;;;;;;7.50;2.80;;;13.90;87.60;;;;;;5074623;28;20562;-87
2021/08/02 02:01:41;;;;;;;12.47;2.90;;;13.90;87.70;;;;;;5056657;28;20682;-87
2021/08/02 02:04:08;;;;;;;8.00;3.07;;;13.90;87.60;;;;;;5056706;28;20203;-87
2021/08/02 02:06:39;;;;;;;8.97;2.47;;;13.90;87.60;;;;;;5074521;28;20195;-87
2021/08/02 02:09:09;;;;;;;6.80;2.40;;;13.80;87.40;;;;;;5074363;28;20163;-87
2021/08/02 02:11:41;;;;;;;4.87;2.33;;;13.80;87.30;;;;;;5056429;28;20175;-87
2021/08/02 02:14:09;;;;;;;5.83;2.70;;;13.90;87.30;;;;;;5074480;28;20244;-87
2021/08/02 02:16:38;;;;;;;4.80;2.33;;;13.90;87.20;;;;;;5074180;28;20187;-87
2021/08/02 02:19:06;;;;;;;7.70;2.33;;;13.80;87.10;;;;;;5074145;28;20700;-87
2021/08/02 02:21:33;;;;;;;7.73;2.20;;;13.80;87.20;;;;;;5056284;28;20171;-87
2021/08/02 02:24:01;;;;;;;5.73;2.20;;;13.90;87.30;;;;;;5056166;28;20175;-87
2021/08/02 02:26:31;;;;;;;5.57;2.50;;;13.80;87.70;;;;;;5056173;28;20244;-87
2021/08/02 02:28:59;;;;;;;7.87;3.00;;;13.80;87.50;;;;;;5074074;28;20155;-87
2021/08/02 02:31:25;;;;;;;8.77;2.90;;;13.80;87.80;;;;;;5055868;28;20182;-87
2021/08/02 02:33:55;;;;;;;3.63;2.20;;;13.70;87.90;;;;;;5055963;28;20203;-87
2021/08/02 02:36:22;;;;;;;7.57;2.30;;;13.70;88.00;;;;;;5073776;28;20191;-87
2021/08/02 02:38:50;;;;;;;8.40;2.63;;;13.80;87.90;;;;;;5055880;28;20210;-87
2021/08/02 02:41:20;;;;;;;7.07;2.53;;;13.80;87.70;;;;;;5055879;28;20179;-87
2021/08/02 02:43:47;;;;;;;6.93;2.67;;;13.70;87.70;;;;;;5073531;28;20172;-87
2021/08/02 02:46:14;;;;;;;5.53;2.40;;;13.80;87.90;;;;;;5073721;28;20553;-87
2021/08/02 02:48:40;;;;;;;8.67;2.63;;;13.80;88.00;;;;;;5073860;28;20175;-87
2021/08/02 02:51:06;;;;;;;9.17;2.90;;;13.80;87.90;;;;;;5055675;28;20179;-87
2021/08/02 02:53:33;;;;;;;8.40;2.57;;;13.80;87.90;;;;;;5055628;28;20340;-88
2021/08/02 02:56:06;;;;;;;6.37;2.70;;;13.80;87.80;;;;;;5055584;28;20689;-87
2021/08/02 02:58:32;;;;;;;7.53;2.53;;;13.80;87.60;;;;;;5073881;28;20151;-87
2021/08/02 03:00:59;;;;;;;11.03;3.03;;;13.80;87.90;;;;;;5073467;28;20164;-87
2021/08/02 03:03:26;;;;;;;7.60;3.03;;;13.80;87.80;;;;;;5073427;28;20175;-87
2021/08/02 03:05:52;;;;;;;7.40;2.80;;;13.80;87.70;;;;;;5073666;28;20728;-88
2021/08/02 03:08:21;;;;;;;5.27;2.50;;;13.80;87.60;;;;;;5055346;28;20548;-87
2021/08/02 03:10:49;;;;;;;5.57;2.70;;;13.80;87.80;;;;;;5055394;28;20175;-87
2021/08/02 03:13:15;;;;;;;7.47;2.50;;;13.80;87.80;;;;;;5055247;28;20278;-87
2021/08/02 03:15:42;;;;;;;8.23;2.80;;;13.80;87.80;;;;;;5055390;28;20195;-87
2021/08/02 03:18:08;;;;;;;6.83;2.73;;;13.80;87.80;;;;;;5055390;28;20171;-87
2021/08/02 03:20:34;;;;;;;7.70;2.70;;;13.80;87.90;;;;;;5073260;28;20237;-87
2021/08/02 03:23:18;;;;;;;4.93;2.30;;;13.70;88.10;;;;;;5073520;28;20175;-87
2021/08/02 03:25:50;;;;;;;6.17;2.27;;;13.70;87.50;;;;;;5055372;28;20682;-87
2021/08/02 03:28:29;;;;;;;2.63;2.00;;;13.70;87.50;;;;;;5055850;28;20187;-87
2021/08/02 03:30:58;;;;;;;6.60;1.80;;;13.80;87.30;;;;;;5055204;28;20622;-87
2021/08/02 03:33:28;;;;;;;5.13;1.87;;;13.80;86.80;;;;;;5055169;28;20239;-87
2021/08/02 03:35:58;;;;;;;3.17;1.70;;;13.80;86.20;;;;;;5055200;28;20191;-88
2021/08/02 03:38:25;;;;;;;7.23;2.13;;;13.80;86.00;;;;;;5055058;28;20180;-87
2021/08/02 03:40:51;;;;;;;2.37;1.80;;;13.80;85.80;;;;;;5055206;28;20171;-87
2021/08/02 03:43:18;;;;;;;5.60;1.60;;;13.80;85.90;;;;;;5055104;28;20179;-87
2021/08/02 03:45:44;;;;;;;2.80;1.80;;;13.80;85.80;;;;;;5055024;28;20199;-88
2021/08/02 03:48:11;;;;;;;4.93;1.83;;;13.80;86.20;;;;;;5055077;28;20183;-87
2021/08/02 03:50:38;;;;;;;4.90;2.13;;;13.80;86.50;;;;;;5055024;28;20179;-87
2021/08/02 03:53:04;;;;;;;8.40;2.03;;;13.80;86.80;;;;;;5054943;28;20227;-88
2021/08/02 03:55:32;;;;;;;6.37;2.00;;;13.80;87.10;;;;;;5073503;28;20195;-87
2021/08/02 03:57:58;;;;;;;10.23;2.37;;;13.90;86.90;;;;;;5058973;28;20590;-87
2021/08/02 04:00:24;;;;;;;5.77;2.10;;;13.90;87.10;;;;;;5059066;28;20172;-88
2021/08/02 04:02:50;;;;;;;9.03;2.33;;;13.90;87.30;;;;;;5058877;28;20258;-88
2021/08/02 04:05:17;;;;;;;4.27;1.83;;;13.90;87.20;;;;;;5059064;28;20671;-87
2021/08/02 04:07:44;;;;;;;5.83;2.40;;;14.00;87.30;;;;;;5076719;28;20171;-87
2021/08/02 04:10:11;;;;;;;8.53;2.60;;;14.00;87.30;;;;;;5058657;28;20264;-87
2021/08/02 04:12:38;;;;;;;7.17;2.40;;;14.00;87.20;;;;;;5058592;28;20647;-87
2021/08/02 04:15:06;;;;;;;5.87;2.10;;;14.00;87.00;;;;;;5076494;28;20187;-88
2021/08/02 04:17:32;;;;;;;12.27;2.40;;;13.90;87.20;;;;;;5058613;28;20175;-87
2021/08/02 04:19:57;;;;;;;4.27;2.10;;;14.00;86.90;;;;;;5076498;28;20298;-88
2021/08/02 04:22:23;;;;;;;7.40;2.20;;;13.90;86.80;;;;;;5058499;28;20216;-87
2021/08/02 04:24:49;;;;;;;4.60;2.07;;;14.00;86.80;;;;;;5058734;28;20200;-87
2021/08/02 04:27:14;;;;;;;12.37;2.63;;;14.00;86.80;;;;;;5058453;28;20174;-87
2021/08/02 04:29:40;;;;;;;10.03;2.63;;;14.00;86.70;;;;;;5076285;28;20186;-87
2021/08/02 04:32:06;;;;;;;6.33;2.30;;;14.10;86.50;;;;;;5058275;28;20207;-87
2021/08/02 04:34:32;;;;;;;6.17;2.90;;;14.10;86.70;;;;;;5059272;28;20208;-87
2021/08/02 04:36:57;;;;;;;6.40;2.50;;;14.10;86.90;;;;;;5058370;28;20175;-87
2021/08/02 04:39:23;;;;;;;6.07;2.63;;;14.10;87.10;;;;;;5058437;28;20181;-87
2021/08/02 04:41:49;;;;;;;6.83;2.07;;;14.10;87.50;;;;;;5058211;28;20211;-87
2021/08/02 04:44:14;;;;;;;6.27;1.93;;;14.10;87.30;;;;;;5076309;28;20262;-87
2021/08/02 04:46:40;;;;;;;3.83;2.00;;;14.10;87.20;;;;;;5057958;28;20210;-87
2021/08/02 04:49:05;;;;;;;7.00;3.07;;;14.00;87.40;;;;;;5058302;28;20241;-88
2021/08/02 04:51:31;;;;;;;7.23;2.30;;;14.00;87.60;;;;;;5058000;28;20179;-87
2021/08/02 04:53:57;;;;;;;4.23;2.13;;;14.00;87.90;;;;;;5057822;28;20606;-87
2021/08/02 04:56:22;;;;;;;8.00;2.93;;;14.00;88.10;;;;;;5057830;28;20290;-87
2021/08/02 04:58:48;;;;;;;6.97;2.47;;;14.00;88.30;;;;;;5058457;28;20179;-87
2021/08/02 05:01:14;;;;;;;9.07;2.83;;;14.00;88.50;;;;;;5076023;28;20279;-87
2021/08/02 05:03:39;;;;;;;4.97;2.50;;;14.00;88.40;;;;;;5057737;28;20651;-87
2021/08/02 05:06:05;;;;;;;11.27;3.57;;;14.00;88.00;;;;;;5057674;28;20285;-87
2021/08/02 05:08:31;;;;;;;5.77;2.50;;;14.00;87.70;;;;;;5056162;28;20184;-87
2021/08/02 05:10:57;;;;;;;9.57;3.20;;;14.10;87.50;;;;;;5057640;28;20179;-87
2021/08/02 05:13:22;;;;;;;6.30;2.43;;;14.10;87.70;;;;;;5075450;28;20245;-87
2021/08/02 05:15:48;;;;;;;4.30;2.27;;;14.20;87.40;;;;;;5075393;28;20191;-87
2021/08/02 05:18:14;;;;;;;5.87;2.70;;;14.10;87.30;;;;;;5057694;28;20623;-87
2021/08/02 05:20:41;;;;;;;9.60;4.47;;;14.20;87.70;;;;;;5075361;28;20172;-88
2021/08/02 05:23:06;;;;;;;8.20;3.17;;;14.20;88.00;;;;;;5058014;28;20543;-88
2021/08/02 05:25:32;;;;;;;7.37;2.63;;;14.20;88.00;;;;;;5075375;28;20203;-87
2021/08/02 05:27:58;;;;;;;16.60;3.50;;;14.20;88.10;;;;;;5057368;28;20194;-88
2021/08/02 05:30:24;;;;;;;7.53;3.30;;;14.20;88.30;;;;;;5075140;28;20190;-87
2021/08/02 05:32:50;;;;;;;6.77;2.23;;;14.20;88.10;;;;;;5075074;28;20203;-88
2021/08/02 05:35:16;;;;;;;6.73;2.00;;;14.20;86.80;;;;;;5075053;28;20245;-87
2021/08/02 05:37:42;;;;;;;4.00;1.90;;;14.30;86.80;;;;;;5075052;28;20183;-88
2021/08/02 05:40:09;;;;;;;5.97;1.97;;;14.30;86.70;;;;;;5074967;28;20172;-87
2021/08/02 05:42:35;;;;;;;8.40;2.77;;;14.30;86.60;;;;;;5056924;28;20175;-87
2021/08/02 05:45:05;;;;;;;4.23;1.73;;;14.30;86.50;;;;;;5074787;28;20191;-87
2021/08/02 05:47:31;;;;;;;10.73;1.73;;;14.40;86.70;;;;;;5056836;28;20177;-88
2021/08/02 05:49:57;;;;;;;10.27;2.80;;;14.40;86.30;;;;;;5056922;28;20174;-88
2021/08/02 05:52:23;;;;;;;6.50;2.13;;;14.40;86.40;;;;;;5074722;28;20662;-87
2021/08/02 05:54:48;;;;;;;5.53;2.20;;;14.50;86.10;;;;;;5056696;28;20625;-87
2021/08/02 05:57:21;;;;;;;7.03;2.13;;;14.60;86.10;;;;;;5056762;28;20667;-87
2021/08/02 05:59:47;;;;;;;5.77;1.80;;;14.60;86.10;;;;;;5057362;28;20250;-87
2021/08/02 06:02:13;;;;;;;6.27;2.07;;;14.70;86.10;;;;;;5056648;28;20171;-87
2021/08/02 06:04:40;;;;;;;5.03;1.70;;;14.80;85.80;;;;;;5056617;28;20179;-88
2021/08/02 06:07:05;;;;;;;9.47;2.10;;;14.80;85.60;;;;;;5074532;28;20197;-88
2021/08/02 06:09:32;;;;;;;8.17;1.77;;;14.80;85.80;;;;;;5056577;28;20203;-88
2021/08/02 06:11:58;;;;;;;5.83;1.67;;;14.80;85.80;;;;;;5056474;28;20180;-87
2021/08/02 06:14:24;;;;;;;6.03;2.07;;;14.80;85.30;;;;;;5056329;28;20631;-87
2021/08/02 06:16:50;;;;;;;6.30;2.27;;;14.80;86.00;;;;;;5074433;28;20226;-88
2021/08/02 06:19:16;;;;;;;7.50;2.30;;;14.80;85.90;;;;;;5055845;28;20262;-87
2021/08/02 06:21:42;;;;;;;10.73;2.60;;;14.80;85.80;;;;;;5056291;28;20171;-87
2021/08/02 06:24:08;;;;;;;6.87;2.03;;;14.90;85.90;;;;;;5056254;28;20210;-88
2021/08/02 06:26:34;;;;;;;6.23;2.03;;;15.10;85.60;;;;;;5073934;28;20599;-87
2021/08/02 06:29:00;;;;;;;4.07;2.30;;;15.30;85.00;;;;;;5056966;28;20175;-87
2021/08/02 06:31:26;;;;;;;5.83;2.50;;;15.40;85.50;;;;;;5056070;28;20184;-87
2021/08/02 06:33:52;;;;;;;6.43;2.50;;;15.40;85.40;;;;;;5073838;28;20229;-88
2021/08/02 06:36:19;;;;;;;4.17;2.00;;;15.30;85.70;;;;;;5074095;28;20187;-87
2021/08/02 06:38:45;;;;;;;9.93;2.40;;;15.30;85.80;;;;;;5073828;28;20646;-87
2021/08/02 06:41:10;;;;;;;10.67;2.43;;;15.40;85.30;;;;;;5074114;28;20194;-87
2021/08/02 06:43:36;;;;;;;4.20;2.07;;;15.30;85.50;;;;;;5073792;28;20180;-88
2021/08/02 06:46:02;;;;;;;7.93;2.50;;;15.30;85.80;;;;;;5055787;28;20201;-87
2021/08/02 06:48:28;;;;;;;8.23;2.03;;;15.20;85.40;;;;;;5055739;28;20260;-86
2021/08/02 06:50:54;;;;;;;5.00;2.23;;;15.20;85.60;;;;;;5073619;28;20643;-86
2021/08/02 06:53:19;;;;;;;7.47;2.47;;;15.20;85.70;;;;;;5074023;28;20704;-87
2021/08/02 06:55:47;;;;;;;8.90;2.33;;;15.10;87.10;;;;;;5055605;28;20195;-88
2021/08/02 06:58:13;;;;;;;7.93;2.60;;;14.90;87.80;;;;;;5055980;28;20175;-89
2021/08/02 07:00:40;;;;;;;15.20;3.10;;;14.70;89.30;;;;;;5055712;28;20587;-88
2021/08/02 07:03:05;;;;;;;5.43;3.03;;;14.60;89.70;;;;;;5073562;28;20172;-89
2021/08/02 07:05:31;;;;;;;4.57;2.40;;;14.40;90.30;;;;;;5073685;28;20191;-89
2021/08/02 07:07:57;;;;;;;4.43;2.47;;;14.40;90.00;;;;;;5073440;28;20693;-89
2021/08/02 07:10:22;;;;;;;3.63;2.30;;;14.40;90.50;;;;;;5073493;28;20266;-89
2021/08/02 07:12:48;;;;;;;5.00;2.53;;;14.50;90.50;;;;;;5055400;28;20195;-88
2021/08/02 07:15:14;;;;;;;9.80;2.93;;;14.50;90.40;;;;;;5073302;28;20190;-88
2021/08/02 07:17:39;;;;;;;7.17;2.90;;;14.60;90.60;;;;;;5073330;28;20228;-88
2021/08/02 07:20:05;;;;;;;8.07;2.40;;;14.70;90.30;;;;;;5055387;28;20178;-89
2021/08/02 07:22:31;;;;;;;2.37;2.03;;;14.70;90.40;;;;;;5073338;28;20163;-88
2021/08/02 07:24:57;;;;;;;8.03;3.70;;;14.70;90.80;;;;;;5073077;28;20210;-88
2021/08/02 07:27:22;;;;;;;4.07;2.43;;;14.80;90.60;;;;;;5078880;23;20227;-87
2021/08/02 07:29:48;;;;;;;8.23;3.07;;;15.00;90.30;;;;;;5054711;28;20259;-87
2021/08/02 07:32:14;;;;;;;8.23;2.90;;;15.20;90.60;;;;;;5054507;28;20258;-86
2021/08/02 07:34:40;;;;;;;7.10;2.50;;;15.20;88.80;;;;;;5072864;28;20199;-85
2021/08/02 07:37:05;;;;;;;5.60;2.00;;;15.20;89.20;;;;;;5071664;28;20192;-85
2021/08/02 07:39:31;;;;;;;4.10;2.13;;;15.20;88.40;;;;;;5072937;28;20176;-86
2021/08/02 07:41:57;;;;;;;3.67;2.20;;;15.30;87.70;;;;;;5054878;28;20198;-85
2021/08/02 07:44:23;;;;;;;11.23;2.70;;;15.40;88.00;;;;;;5072878;28;20700;-86
2021/08/02 07:46:49;;;;;;;5.27;2.17;;;15.40;87.80;;;;;;5073217;28;20199;-84
2021/08/02 07:49:15;;;;;;;11.70;2.67;;;15.30;86.30;;;;;;5073435;28;20176;-84
2021/08/02 07:51:41;;;;;;;8.87;2.30;;;15.30;86.50;;;;;;5072996;28;20171;-84
2021/08/02 07:54:08;;;;;;;6.70;2.10;;;15.30;86.90;;;;;;5072885;28;20198;-85
2021/08/02 07:56:34;;;;;;;5.73;1.90;;;15.40;86.80;;;;;;5072784;28;20190;-84
2021/08/02 07:59:01;;;;;;;3.70;1.90;;;15.60;86.60;;;;;;5073244;28;20701;-84
2021/08/02 08:01:26;;;;;;;8.57;2.47;;;15.70;86.00;;;;;;5073204;28;20164;-85
2021/08/02 08:03:52;;;;;;;10.07;2.03;;;15.80;86.30;;;;;;5072688;28;20178;-84
2021/08/02 08:06:18;;;;;;;4.47;2.10;;;15.80;85.50;;;;;;5072644;28;20567;-85
2021/08/02 08:08:43;;;;;;;4.47;1.95;;;15.80;85.90;;;;;;5072695;28;20188;-84
2021/08/02 08:11:10;;;;;;;7.80;2.27;;;15.80;86.00;;;;;;5073028;28;20171;-85
2021/08/02 08:13:39;;;;;;;6.33;2.23;;;15.90;85.70;;;;;;5072658;28;20195;-84
2021/08/02 08:16:06;;;;;;;6.30;2.20;;;15.80;85.20;;;;;;5072663;28;20203;-84
2021/08/02 08:18:31;;;;;;;6.57;1.90;;;15.70;85.00;;;;;;5072642;28;20175;-85
2021/08/02 08:21:01;;;;;;;7.70;2.57;;;15.80;86.40;;;;;;5054644;28;20179;-84
2021/08/02 08:23:29;;;;;;;5.80;2.65;;;15.90;85.80;;;;;;5072481;28;20183;-84
2021/08/02 08:25:55;;;;;;;6.00;2.57;;;15.90;85.70;;;;;;5054230;28;20249;-84
2021/08/02 08:28:20;;;;;;;9.52;2.88;;;16.00;86.00;;;;;;5054525;28;20210;-85
2021/08/02 08:30:46;;;;;;;8.68;2.47;;;16.10;85.80;;;;;;5072410;28;20207;-85
2021/08/02 08:33:12;;;;;;;5.00;2.05;;;16.40;85.70;;;;;;5072376;28;20226;-84
2021/08/02 08:35:38;;;;;;;7.95;2.17;;;16.70;85.50;;;;;;5054439;28;20202;-85
2021/08/02 08:38:04;;;;;;;6.68;1.90;;;16.90;84.20;;;;;;5054348;28;20167;-86
2021/08/02 08:40:32;;;;;;;6.00;2.40;;;17.00;81.60;;;;;;5072604;28;20203;-83
2021/08/02 08:42:58;;;;;;;12.48;2.75;;;16.90;81.60;;;;;;5074904;28;20195;-84
2021/08/02 08:45:24;;;;;;;9.93;2.00;;;17.10;83.70;;;;;;5075754;28;20257;-84
2021/08/02 08:47:51;;;;;;;6.82;2.40;;;17.40;83.40;;;;;;5075971;28;20176;-83
2021/08/02 08:50:17;;;;;;;5.72;2.15;;;17.40;81.80;;;;;;5057829;28;20282;-84
2021/08/02 08:52:44;;;;;;;7.47;1.95;;;17.30;78.30;;;;;;5076035;28;20202;-83
2021/08/02 08:55:12;;;;;;;6.30;2.00;;;17.20;81.20;;;;;;5075953;28;20268;-84
2021/08/02 08:57:38;;;;;;;5.55;1.85;;;17.10;80.90;;;;;;5075981;28;20199;-83
2021/08/02 09:00:07;;;;;;;5.85;1.90;;;17.20;79.80;;;;;;5075593;28;20175;-83
2021/08/02 09:02:33;;;;;;;3.15;1.63;;;17.40;79.60;;;;;;5075784;28;20172;-83
2021/08/02 09:05:02;;;;;;;6.35;2.10;;;17.50;77.20;;;;;;5075628;28;20171;-83
2021/08/02 09:07:37;;;;;;;5.78;1.80;;;17.50;76.90;;;;;;5075795;28;20237;-84
2021/08/02 09:10:05;;;;;;;5.47;1.50;;;17.50;78.50;;;;;;5075727;28;20151;-83
2021/08/02 09:12:32;;;;;;;4.63;1.30;;;17.50;77.90;;;;;;5057650;28;20267;-83
2021/08/02 09:15:00;;;;;;;6.38;1.48;;;17.00;77.90;;;;;;5075613;28;20178;-83
2021/08/02 09:17:31;;;;;;;6.45;1.40;;;16.70;78.90;;;;;;5075438;28;20197;-83
2021/08/02 09:19:58;;;;;;;3.72;1.55;;;16.50;78.70;;;;;;5057524;28;20269;-83
2021/08/02 09:22:33;;;;;;;3.42;1.67;;;16.40;79.60;;;;;;5075608;28;20173;-83
2021/08/02 09:25:05;;;;;;;5.70;2.25;;;16.70;77.80;;;;;;5075395;28;20205;-83
2021/08/02 09:27:33;;;;;;;6.63;2.15;;;17.20;77.10;;;;;;5075065;28;20695;-83
2021/08/02 09:29:58;;;;;;;5.70;1.60;;;17.20;77.00;;;;;;5075251;28;20179;-83
2021/08/02 09:32:24;;;;;;;6.53;1.63;;;17.50;77.80;;;;;;5075622;28;20259;-83
2021/08/02 09:34:50;;;;;;;6.85;1.70;;;17.70;76.00;;;;;;5074934;28;20769;-84
2021/08/02 09:37:25;;;;;;;6.72;1.70;;;17.80;75.70;;;;;;5057137;28;20191;-83
2021/08/02 09:39:53;;;;;;;4.85;1.83;;;17.80;74.00;;;;;;5075090;28;20192;-83
2021/08/02 09:42:26;;;;;;;5.25;1.55;;;18.00;72.70;;;;;;5058707;28;20179;-84
2021/08/02 09:45:01;;;;;;;8.52;1.52;;;17.90;73.80;;;;;;5079371;28;20596;-84
2021/08/02 09:47:29;;;;;;;8.10;1.67;;;18.20;74.00;;;;;;5076001;28;20628;-84
2021/08/02 09:49:54;;;;;;;4.97;1.85;;;18.20;73.40;;;;;;5075345;28;20175;-83
2021/08/02 09:52:20;;;;;;;5.18;1.73;;;17.70;74.20;;;;;;5075549;28;20179;-83
2021/08/02 09:54:46;;;;;;;7.15;1.95;;;16.90;77.10;;;;;;5074385;28;20702;-83
2021/08/02 09:57:12;;;;;;;6.50;2.00;;;16.70;79.00;;;;;;5056812;28;20229;-83
2021/08/02 09:59:42;;;;;;;7.65;2.35;;;16.30;80.80;;;;;;5074756;28;20167;-83
2021/08/02 10:02:08;;;;;;;8.38;2.30;;;15.80;82.50;;;;;;5057512;28;20185;-84
2021/08/02 10:04:34;;;;;;;4.13;1.75;;;15.60;84.10;;;;;;5074408;28;20234;-84
2021/08/02 10:07:00;;;;;;;8.05;2.53;;;15.20;85.20;;;;;;5074327;28;20191;-83
2021/08/02 10:09:29;;;;;;;14.82;7.53;;;15.10;85.90;;;;;;5074203;28;20182;-84
2021/08/02 10:11:58;;;;;;;11.23;2.80;;;15.00;86.20;;;;;;5056619;28;20655;-84
2021/08/02 10:14:29;;;;;;;6.73;2.53;;;14.80;87.40;;;;;;5074102;28;20183;-84
2021/08/02 10:16:57;;;;;;;10.57;2.13;;;15.00;87.30;;;;;;5056142;28;20191;-85
2021/08/02 10:19:36;;;;;;;4.37;2.00;;;14.90;87.10;;;;;;5074217;28;20160;-85
2021/08/02 10:22:02;;;;;;;3.33;1.90;;;15.00;88.20;;;;;;5075004;28;20490;-84
2021/08/02 10:24:27;;;;;;;5.17;2.13;;;15.30;86.40;;;;;;5056152;28;20171;-84
2021/08/02 10:26:57;;;;;;;8.47;2.23;;;15.30;86.30;;;;;;5073908;28;20263;-85
2021/08/02 10:29:24;;;;;;;9.97;2.87;;;15.60;86.30;;;;;;5073909;28;20254;-85
2021/08/02 10:31:51;;;;;;;6.93;2.13;;;15.70;85.50;;;;;;5073930;28;20171;-84
2021/08/02 10:34:21;;;;;;;4.33;2.13;;;15.70;85.50;;;;;;5073711;28;20191;-84
2021/08/02 10:37:05;;;;;;;8.77;2.43;;;15.80;84.50;;;;;;5055894;28;20206;-84
2021/08/02 10:39:34;;;;;;;5.35;1.92;;;15.80;84.20;;;;;;5055913;28;20159;-85
2021/08/02 10:42:08;;;;;;;7.00;2.30;;;15.90;84.10;;;;;;5073597;28;20563;-85
2021/08/02 10:44:34;;;;;;;8.68;2.08;;;16.20;84.60;;;;;;5055626;28;20171;-85
2021/08/02 10:47:05;;;;;;;7.90;2.55;;;16.20;84.70;;;;;;5073387;28;20209;-85
2021/08/02 10:49:32;;;;;;;8.68;2.55;;;16.20;84.70;;;;;;5055634;28;20180;-84
2021/08/02 10:51:57;;;;;;;4.63;1.90;;;16.30;85.00;;;;;;5073615;28;20190;-84
2021/08/02 10:54:24;;;;;;;4.25;2.05;;;16.30;83.70;;;;;;5073370;28;20691;-84
2021/08/02 10:56:51;;;;;;;6.40;2.58;;;16.40;84.00;;;;;;5055461;28;20192;-84
2021/08/02 10:59:21;;;;;;;7.88;2.28;;;16.90;85.10;;;;;;5055444;28;20205;-84
2021/08/02 11:01:47;;;;;;;4.03;1.98;;;16.80;83.10;;;;;;5055408;28;20176;-84
2021/08/02 11:04:14;;;;;;;3.95;1.90;;;16.80;82.00;;;;;;5055351;28;20181;-85
2021/08/02 11:06:40;;;;;;;5.50;2.00;;;17.00;81.30;;;;;;5073309;28;20217;-85
2021/08/02 11:09:06;;;;;;;7.65;2.60;;;17.00;82.50;;;;;;5055208;28;20171;-84
2021/08/02 11:11:37;;;;;;;4.57;2.13;;;17.10;81.40;;;;;;5055405;28;20689;-84
2021/08/02 11:14:15;;;;;;;3.92;1.88;;;17.30;80.70;;;;;;5073214;28;20175;-84
2021/08/02 11:16:47;;;;;;;6.13;2.63;;;17.40;80.90;;;;;;5073340;28;20190;-84
2021/08/02 11:19:24;;;;;;;6.13;2.20;;;17.10;80.70;;;;;;5073331;28;20179;-84
2021/08/02 11:21:56;;;;;;;6.10;2.08;;;16.90;80.70;;;;;;5073402;28;20163;-84
2021/08/02 11:24:21;;;;;;;5.95;2.40;;;16.70;80.30;;;;;;5073148;28;20262;-84
2021/08/02 11:26:51;;;;;;;4.80;2.20;;;16.50;82.20;;;;;;5072996;28;20702;-84
2021/08/02 11:29:27;;;;;;;9.88;2.08;;;16.60;82.60;;;;;;5073102;28;20175;-85
2021/08/02 11:31:59;;;;;;;6.38;1.95;;;16.50;82.50;;;;;;5055695;28;20240;-83
2021/08/02 11:34:26;;;;;;;10.23;2.50;;;16.20;83.50;;;;;;5055251;28;20195;-84
2021/08/02 11:36:59;;;;;;;6.80;2.20;;;16.10;82.70;;;;;;5073183;28;20279;-84
2021/08/02 11:39:26;;;;;;;10.52;2.70;;;16.20;83.60;;;;;;5055299;28;20171;-84
2021/08/02 11:42:04;;;;;;;4.40;2.03;;;16.30;84.20;;;;;;5072890;28;20229;-84
2021/08/02 11:44:30;;;;;;;8.77;1.80;;;16.20;82.80;;;;;;5054855;28;20167;-85
2021/08/02 11:46:57;;;;;;;7.78;2.05;;;16.30;83.10;;;;;;5072780;28;20262;-84
2021/08/02 11:49:25;;;;;;;4.28;1.77;;;16.50;83.50;;;;;;5073135;28;20163;-84
2021/08/02 11:51:51;;;;;;;3.97;1.70;;;16.40;82.20;;;;;;5054831;28;20268;-84
2021/08/02 11:54:22;;;;;;;5.70;2.35;;;16.30;82.00;;;;;;5054839;28;20642;-83
2021/08/02 11:56:48;;;;;;;5.13;1.85;;;16.50;82.40;;;;;;5073311;28;20274;-84
2021/08/02 11:59:25;;;;;;;5.40;1.90;;;16.40;81.80;;;;;;5072863;28;20168;-84
2021/08/02 12:01:53;;;;;;;7.80;2.10;;;16.60;82.60;;;;;;5054720;28;20556;-84
2021/08/02 12:04:21;;;;;;;6.38;1.92;;;16.70;81.60;;;;;;5073030;28;20174;-85
2021/08/02 12:06:51;;;;;;;5.30;1.80;;;16.80;82.10;;;;;;5072968;28;20203;-85
2021/08/02 12:09:27;;;;;;;8.93;2.08;;;17.10;81.70;;;;;;5072925;28;20162;-84
2021/08/02 12:11:53;;;;;;;8.80;2.22;;;17.20;79.90;;;;;;5055136;28;20220;-83
2021/08/02 12:14:26;;;;;;;4.60;1.48;;;17.20;77.30;;;;;;5055302;28;20195;-85
2021/08/02 12:17:05;;;;;;;5.32;1.85;;;17.40;77.70;;;;;;5073467;28;20191;-84
2021/08/02 12:19:42;;;;;;;4.28;1.40;;;17.70;79.30;;;;;;5076512;28;20178;-85
2021/08/02 12:22:08;;;;;;;4.65;1.40;;;17.70;76.60;;;;;;5076296;28;20160;-84
2021/08/02 12:24:33;;;;;;;5.50;1.60;;;18.00;77.20;;;;;;5076387;28;20242;-84
2021/08/02 12:26:59;;;;;;;3.25;1.05;;;18.50;74.10;;;;;;5058366;28;20222;-84
2021/08/02 12:29:30;;;;;;;3.25;1.20;;;18.80;74.50;;;;;;5076143;28;20174;-84
2021/08/02 12:32:02;;;;;;;3.67;1.52;;;18.80;71.00;;;;;;5076078;28;20655;-84
2021/08/02 12:34:28;;;;;;;4.35;1.42;;;18.60;72.60;;;;;;5058113;28;20614;-85
2021/08/02 12:36:55;;;;;;;7.15;1.50;;;18.50;71.70;;;;;;5076723;28;20582;-85
2021/08/02 12:39:24;;;;;;;5.15;1.35;;;18.40;74.00;;;;;;5058398;28;20261;-84
2021/08/02 12:41:50;;;;;;;8.82;1.42;;;18.50;74.50;;;;;;5058274;28;20171;-84
2021/08/02 12:44:15;;;;;;;4.88;1.38;;;18.20;74.30;;;;;;5076091;28;20174;-84
2021/08/02 12:46:41;;;;;;;7.38;1.60;;;17.90;75.10;;;;;;5076029;28;20199;-84
2021/08/02 12:49:07;;;;;;;7.47;1.80;;;17.80;76.30;;;;;;5076514;28;20171;-85